Time,TemperatureF,DewpointF,PressureIn,WindDirection,WindDirectionDegrees,WindSpeedMPH,WindSpeedGustMPH,Humidity,HourlyPrecipIn,Conditions,Clouds,dailyrainin,SoftwareType,DateUTC
2013-02-16 00:00:00,38.8,35.0,30.02,North,360,0.0,1.0,86,0.00,,---,0.00,VWS V14.01,2013-02-16 05:00:00,
2013-02-16 00:05:00,38.5,36.4,30.02,North,360,0.0,0.0,92,0.00,,---,0.00,VWS V14.01,2013-02-16 05:05:00,
2013-02-16 00:10:00,38.5,35.3,30.02,North,360,0.0,0.0,88,0.00,,---,0.00,VWS V14.01,2013-02-16 05:10:00,
2013-02-16 00:15:00,38.3,35.1,30.02,North,360,0.0,0.0,88,0.00,,---,0.00,VWS V14.01,2013-02-16 05:15:00,
2013-02-16 00:20:00,38.1,34.9,30.02,North,360,0.0,0.0,88,0.00,,---,0.00,VWS V14.01,2013-02-16 05:20:00,
2013-02-16 00:24:00,37.8,34.6,30.02,North,360,0.0,0.0,88,0.00,,---,0.00,VWS V14.01,2013-02-16 05:24:00,
2013-02-16 00:29:00,37.6,34.4,30.02,North,360,0.0,0.0,88,0.00,,---,0.00,VWS V14.01,2013-02-16 05:29:00,
2013-02-16 00:30:00,36.3,33.9,30.01,North,360,0.0,2.0,91,0.00,,---,0.00,VWS V14.01,2013-02-16 05:30:00,
2013-02-16 00:34:00,37.5,34.3,30.02,North,360,0.0,0.0,88,0.00,,---,0.00,VWS V14.01,2013-02-16 05:34:00,
2013-02-16 00:39:00,37.3,34.4,30.02,North,360,0.0,0.0,89,0.00,,---,0.00,VWS V14.01,2013-02-16 05:39:00,
2013-02-16 00:44:00,37.1,34.2,30.02,North,360,0.0,0.0,89,0.00,,---,0.00,VWS V14.01,2013-02-16 05:44:00,
2013-02-16 00:49:00,36.9,34.0,30.02,North,360,0.0,0.0,89,0.00,,---,0.00,VWS V14.01,2013-02-16 05:49:00,
2013-02-16 00:54:00,36.6,33.7,30.01,North,360,0.0,0.0,89,0.00,,---,0.00,VWS V14.01,2013-02-16 05:54:00,
2013-02-16 00:59:00,36.3,33.4,30.01,North,360,0.0,0.0,89,0.00,,---,0.00,VWS V14.01,2013-02-16 05:59:00,
2013-02-16 01:00:00,37.2,32.5,30.00,North,360,0.0,2.0,83,0.00,,---,0.00,VWS V14.01,2013-02-16 06:00:00,
2013-02-16 01:04:00,36.3,33.4,30.01,North,360,0.0,0.0,89,0.00,,---,0.00,VWS V14.01,2013-02-16 06:04:00,
2013-02-16 01:09:00,36.3,33.7,30.01,North,360,0.0,0.0,90,0.00,,---,0.00,VWS V14.01,2013-02-16 06:09:00,
2013-02-16 01:13:00,36.3,33.7,30.01,North,360,0.0,0.0,90,0.00,,---,0.00,VWS V14.01,2013-02-16 06:13:00,
2013-02-16 01:18:00,36.3,33.9,30.01,North,360,0.0,0.0,91,0.00,,---,0.00,VWS V14.01,2013-02-16 06:18:00,
2013-02-16 01:23:00,36.3,33.9,30.01,North,360,0.0,0.0,91,0.00,,---,0.00,VWS V14.01,2013-02-16 06:23:00,
2013-02-16 01:28:00,36.2,33.8,30.01,North,360,0.0,2.0,91,0.00,,---,0.00,VWS V14.01,2013-02-16 06:28:00,
2013-02-16 01:30:00,38.0,31.8,29.99,North,360,0.0,3.0,78,0.00,,---,0.00,VWS V14.01,2013-02-16 06:30:00,
2013-02-16 01:33:00,36.3,33.9,30.01,North,360,0.0,2.0,91,0.00,,---,0.00,VWS V14.01,2013-02-16 06:33:00,
2013-02-16 01:38:00,36.3,33.9,30.00,North,360,0.0,0.0,91,0.00,,---,0.00,VWS V14.01,2013-02-16 06:38:00,
2013-02-16 01:43:00,36.5,33.8,30.00,North,360,0.0,0.0,90,0.00,,---,0.00,VWS V14.01,2013-02-16 06:43:00,
2013-02-16 01:48:00,36.8,33.6,30.00,North,360,0.0,1.0,88,0.00,,---,0.00,VWS V14.01,2013-02-16 06:48:00,
2013-02-16 01:53:00,37.0,33.5,30.00,North,360,0.0,2.0,87,0.00,,---,0.00,VWS V14.01,2013-02-16 06:53:00,
2013-02-16 01:58:00,37.1,33.0,30.00,North,360,0.0,2.0,85,0.00,,---,0.00,VWS V14.01,2013-02-16 06:58:00,
2013-02-16 02:00:00,38.7,31.5,29.98,North,360,1.0,4.0,75,0.00,,---,0.00,VWS V14.01,2013-02-16 07:00:00,
2013-02-16 02:03:00,37.2,32.8,30.00,North,360,0.0,2.0,84,0.00,,---,0.00,VWS V14.01,2013-02-16 07:03:00,
2013-02-16 02:08:00,37.4,32.4,30.00,North,360,0.0,2.0,82,0.00,,---,0.00,VWS V14.01,2013-02-16 07:08:00,
2013-02-16 02:13:00,37.7,32.4,30.00,North,360,0.0,3.0,81,0.00,,---,0.00,VWS V14.01,2013-02-16 07:13:00,
2013-02-16 02:18:00,37.8,31.9,29.99,North,360,0.0,3.0,79,0.00,,---,0.00,VWS V14.01,2013-02-16 07:18:00,
2013-02-16 02:23:00,37.9,32.0,29.99,North,360,1.0,3.0,79,0.00,,---,0.00,VWS V14.01,2013-02-16 07:23:00,
2013-02-16 02:28:00,37.9,31.7,29.99,North,360,0.0,3.0,78,0.00,,---,0.00,VWS V14.01,2013-02-16 07:28:00,
2013-02-16 02:30:00,39.0,31.4,29.98,North,360,3.0,4.0,74,0.00,,---,0.00,VWS V14.01,2013-02-16 07:30:00,
2013-02-16 02:33:00,38.0,31.8,29.99,North,360,0.0,3.0,78,0.00,,---,0.00,VWS V14.01,2013-02-16 07:33:00,
2013-02-16 02:38:00,38.1,31.5,29.99,North,360,0.0,1.0,77,0.00,,---,0.00,VWS V14.01,2013-02-16 07:38:00,
2013-02-16 02:43:00,38.3,31.4,29.99,North,360,0.0,1.0,76,0.00,,---,0.00,VWS V14.01,2013-02-16 07:43:00,
2013-02-16 02:48:00,38.5,31.3,29.99,North,360,0.0,3.0,75,0.00,,---,0.00,VWS V14.01,2013-02-16 07:48:00,
2013-02-16 02:53:00,38.5,31.3,29.98,North,360,2.0,4.0,75,0.00,,---,0.00,VWS V14.01,2013-02-16 07:53:00,
2013-02-16 02:58:00,38.7,31.5,29.98,North,360,0.0,4.0,75,0.00,,---,0.00,VWS V14.01,2013-02-16 07:58:00,
2013-02-16 03:00:00,38.5,31.0,29.97,North,360,0.0,3.0,74,0.00,,---,0.00,VWS V14.01,2013-02-16 08:00:00,
2013-02-16 03:03:00,38.7,31.5,29.98,North,360,3.0,4.0,75,0.00,,---,0.00,VWS V14.01,2013-02-16 08:03:00,
2013-02-16 03:08:00,38.8,31.6,29.98,North,360,0.0,4.0,75,0.00,,---,0.00,VWS V14.01,2013-02-16 08:08:00,
2013-02-16 03:13:00,38.9,31.7,29.98,North,360,2.0,4.0,75,0.00,,---,0.00,VWS V14.01,2013-02-16 08:13:00,
2013-02-16 03:18:00,39.0,31.4,29.98,North,360,1.0,4.0,74,0.00,,---,0.00,VWS V14.01,2013-02-16 08:18:00,
2013-02-16 03:23:00,39.1,31.5,29.98,North,360,0.0,4.0,74,0.00,,---,0.00,VWS V14.01,2013-02-16 08:23:00,
2013-02-16 03:28:00,39.0,31.4,29.98,North,360,1.0,4.0,74,0.00,,---,0.00,VWS V14.01,2013-02-16 08:28:00,
2013-02-16 03:30:00,37.5,30.6,29.97,North,360,0.0,1.0,76,0.00,,---,0.00,VWS V14.01,2013-02-16 08:30:00,
2013-02-16 03:33:00,39.0,31.4,29.98,North,360,1.0,4.0,74,0.00,,---,0.00,VWS V14.01,2013-02-16 08:33:00,
2013-02-16 03:38:00,39.0,31.4,29.98,North,360,0.0,3.0,74,0.00,,---,0.00,VWS V14.01,2013-02-16 08:38:00,
2013-02-16 03:43:00,38.9,31.3,29.97,North,360,2.0,3.0,74,0.00,,---,0.00,VWS V14.01,2013-02-16 08:43:00,
2013-02-16 03:48:00,38.9,31.3,29.97,North,360,1.0,3.0,74,0.00,,---,0.00,VWS V14.01,2013-02-16 08:48:00,
2013-02-16 03:53:00,38.8,31.2,29.97,North,360,0.0,3.0,74,0.00,,---,0.00,VWS V14.01,2013-02-16 08:53:00,
2013-02-16 03:58:00,38.7,31.1,29.97,North,360,0.0,3.0,74,0.00,,---,0.00,VWS V14.01,2013-02-16 08:58:00,
2013-02-16 04:00:00,36.8,31.5,29.97,North,360,0.0,0.0,81,0.00,,---,0.00,VWS V14.01,2013-02-16 09:00:00,
2013-02-16 04:03:00,38.6,31.0,29.97,North,360,0.0,3.0,74,0.00,,---,0.00,VWS V14.01,2013-02-16 09:03:00,
2013-02-16 04:08:00,38.4,30.9,29.97,North,360,0.0,0.0,74,0.00,,---,0.00,VWS V14.01,2013-02-16 09:08:00,
2013-02-16 04:13:00,38.2,30.7,29.97,North,360,0.0,0.0,74,0.00,,---,0.00,VWS V14.01,2013-02-16 09:13:00,
2013-02-16 04:18:00,38.0,30.8,29.97,North,360,0.0,0.0,75,0.00,,---,0.00,VWS V14.01,2013-02-16 09:18:00,
2013-02-16 04:23:00,37.9,31.0,29.96,North,360,0.0,1.0,76,0.00,,---,0.00,VWS V14.01,2013-02-16 09:23:00,
2013-02-16 04:28:00,37.7,31.1,29.96,North,360,0.0,1.0,77,0.00,,---,0.00,VWS V14.01,2013-02-16 09:28:00,
2013-02-16 04:30:00,36.7,31.1,29.98,North,360,0.0,1.0,80,0.00,,---,0.00,VWS V14.01,2013-02-16 09:30:00,
2013-02-16 04:33:00,37.6,30.7,29.97,North,360,0.0,1.0,76,0.00,,---,0.00,VWS V14.01,2013-02-16 09:33:00,
2013-02-16 04:38:00,37.4,30.9,29.97,North,360,0.0,0.0,77,0.00,,---,0.00,VWS V14.01,2013-02-16 09:38:00,
2013-02-16 04:43:00,37.4,31.2,29.97,North,360,0.0,0.0,78,0.00,,---,0.00,VWS V14.01,2013-02-16 09:43:00,
2013-02-16 04:48:00,37.3,31.7,29.97,North,360,0.0,0.0,80,0.00,,---,0.00,VWS V14.01,2013-02-16 09:48:00,
2013-02-16 04:53:00,37.2,31.6,29.97,North,360,0.0,0.0,80,0.00,,---,0.00,VWS V14.01,2013-02-16 09:53:00,
2013-02-16 04:58:00,37.0,31.4,29.97,North,360,0.0,0.0,80,0.00,,---,0.00,VWS V14.01,2013-02-16 09:58:00,
2013-02-16 05:00:00,36.9,30.0,29.98,North,360,0.0,2.0,76,0.00,,---,0.00,VWS V14.01,2013-02-16 10:00:00,
2013-02-16 05:03:00,36.9,31.6,29.97,North,360,0.0,0.0,81,0.00,,---,0.00,VWS V14.01,2013-02-16 10:03:00,
2013-02-16 05:08:00,36.7,31.1,29.97,North,360,0.0,1.0,80,0.00,,---,0.00,VWS V14.01,2013-02-16 10:08:00,
2013-02-16 05:13:00,36.7,31.1,29.98,North,360,0.0,1.0,80,0.00,,---,0.00,VWS V14.01,2013-02-16 10:13:00,
2013-02-16 05:18:00,36.7,31.4,29.98,North,360,0.0,1.0,81,0.00,,---,0.00,VWS V14.01,2013-02-16 10:18:00,
2013-02-16 05:23:00,36.8,31.5,29.97,North,360,0.0,1.0,81,0.00,,---,0.00,VWS V14.01,2013-02-16 10:23:00,
2013-02-16 05:28:00,36.8,31.8,29.98,North,360,0.0,1.0,82,0.00,,---,0.00,VWS V14.01,2013-02-16 10:28:00,
2013-02-16 05:30:00,36.6,30.1,29.99,North,360,1.0,3.0,77,0.00,,---,0.00,VWS V14.01,2013-02-16 10:30:00,
2013-02-16 05:33:00,36.7,31.4,29.98,North,360,0.0,1.0,81,0.00,,---,0.00,VWS V14.01,2013-02-16 10:33:00,
2013-02-16 05:38:00,36.7,30.8,29.98,North,360,0.0,0.0,79,0.00,,---,0.00,VWS V14.01,2013-02-16 10:38:00,
2013-02-16 05:43:00,36.7,30.5,29.97,North,360,0.0,0.0,78,0.00,,---,0.00,VWS V14.01,2013-02-16 10:43:00,
2013-02-16 05:48:00,36.8,30.6,29.97,North,360,0.0,1.0,78,0.00,,---,0.00,VWS V14.01,2013-02-16 10:48:00,
2013-02-16 05:53:00,36.8,30.3,29.98,North,360,0.0,1.0,77,0.00,,---,0.00,VWS V14.01,2013-02-16 10:53:00,
2013-02-16 05:58:00,36.9,30.0,29.98,North,360,0.0,2.0,76,0.00,,---,0.00,VWS V14.01,2013-02-16 10:58:00,
2013-02-16 06:00:00,36.3,31.0,29.99,North,360,0.0,3.0,81,0.00,,---,0.00,VWS V14.01,2013-02-16 11:00:00,
2013-02-16 06:03:00,36.9,30.0,29.98,North,360,0.0,2.0,76,0.00,,---,0.00,VWS V14.01,2013-02-16 11:03:00,
2013-02-16 06:08:00,36.9,30.0,29.98,North,360,0.0,0.0,76,0.00,,---,0.00,VWS V14.01,2013-02-16 11:08:00,
2013-02-16 06:13:00,36.9,30.0,29.98,North,360,0.0,0.0,76,0.00,,---,0.00,VWS V14.01,2013-02-16 11:13:00,
2013-02-16 06:18:00,36.7,29.9,29.98,North,360,0.0,0.0,76,0.00,,---,0.00,VWS V14.01,2013-02-16 11:18:00,
2013-02-16 06:23:00,36.7,29.9,29.98,North,360,0.0,1.0,76,0.00,,---,0.00,VWS V14.01,2013-02-16 11:23:00,
2013-02-16 06:28:00,36.7,30.2,29.98,North,360,0.0,1.0,77,0.00,,---,0.00,VWS V14.01,2013-02-16 11:28:00,
2013-02-16 06:30:00,35.6,30.7,29.99,North,360,2.0,2.0,82,0.00,,---,0.00,VWS V14.01,2013-02-16 11:30:00,
2013-02-16 06:33:00,36.6,30.1,29.99,North,360,0.0,3.0,77,0.00,,---,0.00,VWS V14.01,2013-02-16 11:33:00,
2013-02-16 06:38:00,36.6,30.4,29.99,North,360,0.0,2.0,78,0.00,,---,0.00,VWS V14.01,2013-02-16 11:38:00,
2013-02-16 06:43:00,36.5,30.6,29.99,North,360,0.0,2.0,79,0.00,,---,0.00,VWS V14.01,2013-02-16 11:43:00,
2013-02-16 06:48:00,36.4,30.8,29.99,North,360,0.0,2.0,80,0.00,,---,0.00,VWS V14.01,2013-02-16 11:48:00,
2013-02-16 06:53:00,36.3,30.7,29.99,North,360,0.0,3.0,80,0.00,,---,0.00,VWS V14.01,2013-02-16 11:53:00,
2013-02-16 06:58:00,36.3,31.0,29.99,North,360,0.0,3.0,81,0.00,,---,0.00,VWS V14.01,2013-02-16 11:58:00,
2013-02-16 07:00:00,35.5,30.6,29.99,North,360,1.0,4.0,82,0.00,,---,0.00,VWS V14.01,2013-02-16 12:00:00,
2013-02-16 07:03:00,36.3,31.0,29.99,North,360,0.0,3.0,81,0.00,,---,0.00,VWS V14.01,2013-02-16 12:03:00,
2013-02-16 07:08:00,36.3,31.0,29.99,North,360,0.0,1.0,81,0.00,,---,0.00,VWS V14.01,2013-02-16 12:08:00,
2013-02-16 07:13:00,36.0,31.0,29.98,North,360,0.0,1.0,82,0.00,,---,0.00,VWS V14.01,2013-02-16 12:13:00,
2013-02-16 07:18:00,35.9,31.0,29.99,North,360,0.0,1.0,82,0.00,,---,0.00,VWS V14.01,2013-02-16 12:18:00,
2013-02-16 07:23:00,35.8,30.9,29.99,North,360,0.0,1.0,82,0.00,,---,0.00,VWS V14.01,2013-02-16 12:23:00,
2013-02-16 07:28:00,35.7,30.8,29.98,North,360,1.0,2.0,82,0.00,,---,0.00,VWS V14.01,2013-02-16 12:28:00,
2013-02-16 07:30:00,35.7,31.0,29.99,WNW,283,6.0,8.0,83,0.00,,---,0.00,VWS V14.01,2013-02-16 12:30:00,
2013-02-16 07:33:00,35.6,30.7,29.99,North,360,1.0,2.0,82,0.00,,---,0.00,VWS V14.01,2013-02-16 12:33:00,
2013-02-16 07:38:00,35.6,30.7,29.99,North,360,0.0,3.0,82,0.00,,---,0.00,VWS V14.01,2013-02-16 12:38:00,
2013-02-16 07:43:00,35.5,30.6,29.99,North,360,2.0,3.0,82,0.00,,---,0.00,VWS V14.01,2013-02-16 12:43:00,
2013-02-16 07:48:00,35.5,30.6,29.99,North,360,4.0,4.0,82,0.00,,---,0.00,VWS V14.01,2013-02-16 12:48:00,
2013-02-16 07:53:00,35.5,30.6,29.99,North,360,3.0,4.0,82,0.00,,---,0.00,VWS V14.01,2013-02-16 12:53:00,
2013-02-16 07:58:00,35.5,30.6,29.99,North,360,0.0,4.0,82,0.00,,---,0.00,VWS V14.01,2013-02-16 12:58:00,
2013-02-16 08:00:00,35.4,30.8,30.01,West,265,5.0,17.0,83,0.00,,---,0.00,VWS V14.01,2013-02-16 13:00:00,
2013-02-16 08:03:00,35.5,30.6,29.99,North,360,0.0,4.0,82,0.00,,---,0.00,VWS V14.01,2013-02-16 13:03:00,
2013-02-16 08:08:00,35.6,30.7,29.99,North,360,1.0,5.0,82,0.00,,---,0.00,VWS V14.01,2013-02-16 13:08:00,
2013-02-16 08:13:00,35.6,30.7,29.99,North,355,0.0,5.0,82,0.00,,---,0.00,VWS V14.01,2013-02-16 13:13:00,
2013-02-16 08:18:00,35.6,30.7,29.99,North,355,2.0,5.0,82,0.00,,---,0.00,VWS V14.01,2013-02-16 13:18:00,
2013-02-16 08:23:00,35.6,30.7,29.99,WNW,299,4.0,8.0,82,0.00,,---,0.00,VWS V14.01,2013-02-16 13:23:00,
2013-02-16 08:28:00,35.6,30.7,29.99,WNW,298,0.0,8.0,82,0.00,,---,0.00,VWS V14.01,2013-02-16 13:28:00,
2013-02-16 08:30:00,35.7,30.1,30.01,West,267,5.0,14.0,80,0.00,,---,0.00,VWS V14.01,2013-02-16 13:30:00,
2013-02-16 08:33:00,35.7,31.0,29.99,WNW,291,6.0,8.0,83,0.00,,---,0.00,VWS V14.01,2013-02-16 13:33:00,
2013-02-16 08:38:00,35.6,31.0,29.99,West,271,7.0,9.0,83,0.00,,---,0.00,VWS V14.01,2013-02-16 13:38:00,
2013-02-16 08:43:00,35.6,31.0,29.99,West,271,5.0,9.0,83,0.00,,---,0.00,VWS V14.01,2013-02-16 13:43:00,
2013-02-16 08:48:00,35.7,31.0,30.00,West,269,8.0,11.0,83,0.00,,---,0.00,VWS V14.01,2013-02-16 13:48:00,
2013-02-16 08:53:00,35.6,31.0,30.00,West,263,5.0,13.0,83,0.00,,---,0.00,VWS V14.01,2013-02-16 13:53:00,
2013-02-16 08:58:00,35.6,31.0,30.01,West,269,10.0,17.0,83,0.00,,---,0.00,VWS V14.01,2013-02-16 13:58:00,
2013-02-16 09:00:00,36.6,30.4,30.00,West,269,0.0,10.0,78,0.00,,---,0.00,VWS V14.01,2013-02-16 14:00:00,
2013-02-16 09:03:00,35.4,30.5,30.01,West,261,4.0,17.0,82,0.00,,---,0.00,VWS V14.01,2013-02-16 14:03:00,
2013-02-16 09:08:00,35.5,30.9,30.01,West,266,7.0,13.0,83,0.00,,---,0.00,VWS V14.01,2013-02-16 14:08:00,
2013-02-16 09:13:00,35.4,30.5,30.01,West,266,10.0,13.0,82,0.00,,---,0.00,VWS V14.01,2013-02-16 14:13:00,
2013-02-16 09:18:00,35.4,30.5,30.01,West,269,3.0,14.0,82,0.00,,---,0.00,VWS V14.01,2013-02-16 14:18:00,
2013-02-16 09:23:00,35.4,30.2,30.01,West,269,4.0,14.0,81,0.00,,---,0.00,VWS V14.01,2013-02-16 14:23:00,
2013-02-16 09:28:00,35.5,30.0,30.01,West,267,5.0,14.0,80,0.00,,---,0.00,VWS V14.01,2013-02-16 14:28:00,
2013-02-16 09:30:00,38.2,30.0,30.00,West,273,5.0,16.0,72,0.00,,---,0.00,VWS V14.01,2013-02-16 14:30:00,
2013-02-16 09:33:00,35.6,30.0,30.01,West,267,5.0,14.0,80,0.00,,---,0.00,VWS V14.01,2013-02-16 14:33:00,
2013-02-16 09:38:00,35.8,30.2,30.01,West,272,4.0,10.0,80,0.00,,---,0.00,VWS V14.01,2013-02-16 14:38:00,
2013-02-16 09:43:00,36.0,30.1,30.01,West,273,1.0,10.0,79,0.00,,---,0.00,VWS V14.01,2013-02-16 14:43:00,
2013-02-16 09:48:00,36.1,29.9,30.01,West,268,3.0,10.0,78,0.00,,---,0.00,VWS V14.01,2013-02-16 14:48:00,
2013-02-16 09:53:00,36.1,29.9,30.01,West,268,5.0,10.0,78,0.00,,---,0.00,VWS V14.01,2013-02-16 14:53:00,
2013-02-16 09:58:00,36.3,30.1,30.01,West,268,4.0,10.0,78,0.00,,---,0.00,VWS V14.01,2013-02-16 14:58:00,
2013-02-16 10:00:00,40.1,29.3,29.99,West,274,7.0,14.0,65,0.00,,---,0.00,VWS V14.01,2013-02-16 15:00:00,
2013-02-16 10:03:00,36.4,30.2,30.01,West,268,2.0,10.0,78,0.00,,---,0.00,VWS V14.01,2013-02-16 15:03:00,
2013-02-16 10:08:00,37.0,30.1,30.00,West,269,9.0,10.0,76,0.00,,---,0.00,VWS V14.01,2013-02-16 15:08:00,
2013-02-16 10:13:00,36.8,29.6,30.01,West,261,5.0,14.0,75,0.00,,---,0.00,VWS V14.01,2013-02-16 15:13:00,
2013-02-16 10:18:00,36.9,29.7,30.00,West,273,5.0,14.0,75,0.00,,---,0.00,VWS V14.01,2013-02-16 15:18:00,
2013-02-16 10:23:00,37.4,30.2,30.00,West,267,13.0,14.0,75,0.00,,---,0.00,VWS V14.01,2013-02-16 15:23:00,
2013-02-16 10:28:00,37.7,29.8,30.00,West,263,10.0,16.0,73,0.00,,---,0.00,VWS V14.01,2013-02-16 15:28:00,
2013-02-16 10:30:00,40.4,26.4,29.99,West,263,11.0,20.0,57,0.00,,---,0.00,VWS V14.01,2013-02-16 15:30:00,
2013-02-16 10:33:00,38.1,29.9,30.00,WSW,255,3.0,16.0,72,0.00,,---,0.00,VWS V14.01,2013-02-16 15:33:00,
2013-02-16 10:38:00,38.7,30.1,30.00,West,270,4.0,9.0,71,0.00,,---,0.00,VWS V14.01,2013-02-16 15:38:00,
2013-02-16 10:43:00,39.1,29.8,30.00,West,268,11.0,14.0,69,0.00,,---,0.00,VWS V14.01,2013-02-16 15:43:00,
2013-02-16 10:48:00,39.0,29.4,30.00,West,263,9.0,14.0,68,0.00,,---,0.00,VWS V14.01,2013-02-16 15:48:00,
2013-02-16 10:53:00,39.2,28.8,29.99,West,271,4.0,14.0,66,0.00,,---,0.00,VWS V14.01,2013-02-16 15:53:00,
2013-02-16 10:58:00,39.6,28.8,29.99,West,267,2.0,14.0,65,0.00,,---,0.00,VWS V14.01,2013-02-16 15:58:00,
2013-02-16 11:00:00,42.5,24.2,29.99,West,273,3.0,16.0,48,0.00,,---,0.00,VWS V14.01,2013-02-16 16:00:00,
2013-02-16 11:03:00,39.9,29.5,29.99,West,264,6.0,14.0,66,0.00,,---,0.00,VWS V14.01,2013-02-16 16:03:00,
2013-02-16 11:08:00,40.0,28.0,29.99,West,268,7.0,15.0,62,0.00,,---,0.00,VWS V14.01,2013-02-16 16:08:00,
2013-02-16 11:13:00,40.0,28.0,29.99,West,271,13.0,15.0,62,0.00,,---,0.00,VWS V14.01,2013-02-16 16:13:00,
2013-02-16 11:18:00,40.0,28.4,29.99,West,267,19.0,19.0,63,0.00,,---,0.00,VWS V14.01,2013-02-16 16:18:00,
2013-02-16 11:23:00,40.0,27.6,29.99,West,265,15.0,20.0,61,0.00,,---,0.00,VWS V14.01,2013-02-16 16:23:00,
2013-02-16 11:28:00,40.3,27.1,29.99,West,265,3.0,20.0,59,0.00,,---,0.00,VWS V14.01,2013-02-16 16:28:00,
2013-02-16 11:33:00,40.4,26.4,29.99,West,268,4.0,20.0,57,0.00,,---,0.00,VWS V14.01,2013-02-16 16:33:00,
2013-02-16 11:38:00,40.2,25.3,29.99,West,276,7.0,16.0,55,0.00,,---,0.00,VWS V14.01,2013-02-16 16:38:00,
2013-02-16 11:43:00,40.0,25.1,29.99,West,277,1.0,16.0,55,0.00,,---,0.00,VWS V14.01,2013-02-16 16:43:00,
2013-02-16 11:48:00,40.1,25.2,29.99,WNW,287,0.0,16.0,55,0.00,,---,0.00,VWS V14.01,2013-02-16 16:48:00,
2013-02-16 11:53:00,40.1,24.8,29.99,West,281,2.0,16.0,54,0.00,,---,0.00,VWS V14.01,2013-02-16 16:53:00,
2013-02-16 11:58:00,41.3,24.5,29.99,West,277,6.0,16.0,51,0.00,,---,0.00,VWS V14.01,2013-02-16 16:58:00,
2013-02-16 12:03:00,42.1,24.8,29.99,West,269,2.0,16.0,50,0.00,,---,0.00,VWS V14.01,2013-02-16 17:03:00,
2013-02-16 12:08:00,42.8,24.0,29.99,WNW,289,3.0,10.0,47,0.00,,---,0.00,VWS V14.01,2013-02-16 17:08:00,
2013-02-16 12:13:00,42.8,23.5,29.99,ENE,59,6.0,13.0,46,0.00,,---,0.00,VWS V14.01,2013-02-16 17:13:00,
2013-02-16 12:18:00,41.9,20.5,29.98,West,281,6.0,18.0,42,0.00,,---,0.00,VWS V14.01,2013-02-16 17:18:00,
2013-02-16 12:30:00,42.1,20.1,29.97,NW,309,5.0,22.0,41,0.00,,---,0.00,VWS V14.01,2013-02-16 17:30:00,
2013-02-16 13:00:00,41.2,18.1,29.97,WNW,288,8.0,19.0,39,0.00,,---,0.00,VWS V14.01,2013-02-16 18:00:00,
2013-02-16 13:09:00,42.1,20.7,29.98,West,281,1.0,18.0,42,0.00,,---,0.00,VWS V14.01,2013-02-16 18:09:00,
2013-02-16 13:14:00,43.0,19.8,29.97,West,271,5.0,18.0,39,0.00,,---,0.00,VWS V14.01,2013-02-16 18:14:00,
2013-02-16 13:19:00,42.5,18.7,29.97,West,264,7.0,20.0,38,0.00,,---,0.00,VWS V14.01,2013-02-16 18:19:00,
2013-02-16 13:24:00,41.5,18.4,29.96,WNW,286,10.0,22.0,39,0.00,,---,0.00,VWS V14.01,2013-02-16 18:24:00,
2013-02-16 13:29:00,41.4,19.5,29.96,WSW,252,13.0,22.0,41,0.00,,---,0.00,VWS V14.01,2013-02-16 18:29:00,
2013-02-16 13:34:00,42.1,20.1,29.97,West,271,9.0,9.0,41,0.00,,---,0.00,VWS V14.01,2013-02-16 18:34:00,
2013-02-16 13:39:00,42.2,18.4,29.97,WNW,295,1.0,14.0,38,0.00,,---,0.00,VWS V14.01,2013-02-16 18:39:00,
2013-02-16 13:44:00,41.4,18.9,29.97,West,277,3.0,19.0,40,0.00,,---,0.00,VWS V14.01,2013-02-16 18:44:00,
2013-02-16 13:49:00,41.6,17.9,29.97,WNW,293,2.0,19.0,38,0.00,,---,0.00,VWS V14.01,2013-02-16 18:49:00,
2013-02-16 13:54:00,42.1,18.3,29.97,West,272,16.0,19.0,38,0.00,,---,0.00,VWS V14.01,2013-02-16 18:54:00,
2013-02-16 13:59:00,41.4,17.7,29.97,West,277,8.0,19.0,38,0.00,,---,0.00,VWS V14.01,2013-02-16 18:59:00,
2013-02-16 14:04:00,41.2,18.1,29.97,WNW,290,5.0,8.0,39,0.00,,---,0.00,VWS V14.01,2013-02-16 19:04:00,
2013-02-16 14:10:00,40.2,17.8,29.97,WNW,284,10.0,17.0,40,0.00,,---,0.00,VWS V14.01,2013-02-16 19:10:00,
2013-02-16 14:15:00,41.5,19.0,29.97,WNW,294,2.0,17.0,40,0.00,,---,0.00,VWS V14.01,2013-02-16 19:15:00,
2013-02-16 14:20:00,41.3,18.2,29.97,NW,326,5.0,17.0,39,0.00,,---,0.00,VWS V14.01,2013-02-16 19:20:00,
2013-02-16 14:30:00,40.0,15.9,29.99,West,269,17.0,20.0,37,0.00,,---,0.00,VWS V14.01,2013-02-16 19:30:00,
2013-02-16 15:13:00,41.2,18.7,29.97,NNW,327,2.0,17.0,40,0.00,,---,0.00,VWS V14.01,2013-02-16 20:13:00,
2013-02-16 15:18:00,38.8,18.2,29.99,WNW,298,2.0,17.0,43,0.00,,---,0.00,VWS V14.01,2013-02-16 20:18:00,
2013-02-16 15:23:00,39.9,17.5,29.99,West,275,2.0,20.0,40,0.00,,---,0.00,VWS V14.01,2013-02-16 20:23:00,
2013-02-16 15:28:00,40.2,17.2,29.99,West,272,5.0,20.0,39,0.00,,---,0.00,VWS V14.01,2013-02-16 20:28:00,
2013-02-16 15:33:00,40.1,17.1,30.00,West,276,4.0,20.0,39,0.00,,---,0.00,VWS V14.01,2013-02-16 20:33:00,
2013-02-16 15:38:00,39.4,15.3,29.99,West,268,8.0,28.0,37,0.00,,---,0.00,VWS V14.01,2013-02-16 20:38:00,
2013-02-16 15:43:00,40.2,16.6,29.99,WNW,292,4.0,28.0,38,0.00,,---,0.00,VWS V14.01,2013-02-16 20:43:00,
2013-02-16 16:30:00,37.7,15.6,30.04,WSW,256,12.0,28.0,40,0.00,,---,0.00,VWS V14.01,2013-02-16 21:30:00,
2013-02-16 17:17:00,40.5,16.9,29.99,WNW,293,1.0,28.0,38,0.00,,---,0.00,VWS V14.01,2013-02-16 22:17:00,
2013-02-16 17:22:00,37.7,15.0,30.03,West,259,5.0,28.0,39,0.00,,---,0.00,VWS V14.01,2013-02-16 22:22:00,
2013-02-16 17:27:00,37.8,15.1,30.03,WNW,289,1.0,28.0,39,0.00,,---,0.00,VWS V14.01,2013-02-16 22:27:00,
2013-02-16 17:30:00,33.7,16.6,30.07,West,267,3.0,20.0,49,0.00,,---,0.00,VWS V14.01,2013-02-16 22:30:00,
2013-02-16 17:32:00,37.8,15.7,30.04,West,271,6.0,28.0,40,0.00,,---,0.00,VWS V14.01,2013-02-16 22:32:00,
2013-02-16 17:37:00,37.2,15.7,30.04,West,275,4.0,19.0,41,0.00,,---,0.00,VWS V14.01,2013-02-16 22:37:00,
2013-02-16 17:42:00,36.5,15.6,30.04,WSW,257,9.0,19.0,42,0.00,,---,0.00,VWS V14.01,2013-02-16 22:42:00,
2013-02-16 17:47:00,36.3,15.4,30.04,West,279,5.0,20.0,42,0.00,,---,0.00,VWS V14.01,2013-02-16 22:47:00,
2013-02-16 18:00:00,33.2,16.6,30.08,West,265,4.0,12.0,50,0.00,,---,0.00,VWS V14.01,2013-02-16 23:00:00,
2013-02-16 18:19:00,34.3,16.2,30.06,WSW,257,6.0,20.0,47,0.00,,---,0.00,VWS V14.01,2013-02-16 23:19:00,
2013-02-16 18:24:00,34.0,16.4,30.06,SW,236,6.0,20.0,48,0.00,,---,0.00,VWS V14.01,2013-02-16 23:24:00,
2013-02-16 18:29:00,33.8,16.7,30.06,West,273,5.0,20.0,49,0.00,,---,0.00,VWS V14.01,2013-02-16 23:29:00,
2013-02-16 18:30:00,32.6,16.5,30.09,West,271,3.0,11.0,51,0.00,,---,0.00,VWS V14.01,2013-02-16 23:30:00,
2013-02-16 18:34:00,33.7,16.6,30.07,West,270,4.0,20.0,49,0.00,,---,0.00,VWS V14.01,2013-02-16 23:34:00,
2013-02-16 18:39:00,33.6,16.5,30.07,West,275,5.0,9.0,49,0.00,,---,0.00,VWS V14.01,2013-02-16 23:39:00,
2013-02-16 18:44:00,33.4,16.3,30.07,West,281,4.0,9.0,49,0.00,,---,0.00,VWS V14.01,2013-02-16 23:44:00,
2013-02-16 18:49:00,33.3,16.2,30.07,West,273,7.0,9.0,49,0.00,,---,0.00,VWS V14.01,2013-02-16 23:49:00,
2013-02-16 18:54:00,33.2,16.1,30.08,West,269,2.0,12.0,49,0.00,,---,0.00,VWS V14.01,2013-02-16 23:54:00,
2013-02-16 18:59:00,33.2,16.6,30.08,WSW,256,4.0,12.0,50,0.00,,---,0.00,VWS V14.01,2013-02-16 23:59:00,
2013-02-16 19:00:00,31.7,17.0,30.10,West,264,2.0,12.0,54,0.00,,---,0.00,VWS V14.01,2013-02-17 00:00:00,
2013-02-16 19:04:00,33.2,16.6,30.08,West,265,3.0,12.0,50,0.00,,---,0.00,VWS V14.01,2013-02-17 00:04:00,
2013-02-16 19:09:00,33.1,16.5,30.08,West,268,9.0,11.0,50,0.00,,---,0.00,VWS V14.01,2013-02-17 00:09:00,
2013-02-16 19:14:00,32.9,16.8,30.08,West,269,4.0,11.0,51,0.00,,---,0.00,VWS V14.01,2013-02-17 00:14:00,
2013-02-16 19:19:00,32.8,16.7,30.08,West,277,3.0,11.0,51,0.00,,---,0.00,VWS V14.01,2013-02-17 00:19:00,
2013-02-16 19:24:00,32.7,16.6,30.09,WNW,282,2.0,11.0,51,0.00,,---,0.00,VWS V14.01,2013-02-17 00:24:00,
2013-02-16 19:29:00,32.6,16.5,30.09,West,264,2.0,11.0,51,0.00,,---,0.00,VWS V14.01,2013-02-17 00:29:00,
2013-02-16 19:30:00,31.4,17.5,30.11,West,265,9.0,10.0,56,0.00,,---,0.00,VWS V14.01,2013-02-17 00:30:00,
2013-02-16 19:34:00,32.6,16.5,30.09,West,269,6.0,11.0,51,0.00,,---,0.00,VWS V14.01,2013-02-17 00:34:00,
2013-02-16 19:39:00,32.6,16.9,30.09,West,263,6.0,12.0,52,0.00,,---,0.00,VWS V14.01,2013-02-17 00:39:00,
2013-02-16 19:44:00,32.4,17.2,30.09,West,263,8.0,12.0,53,0.00,,---,0.00,VWS V14.01,2013-02-17 00:44:00,
2013-02-16 19:49:00,32.2,17.0,30.09,West,264,4.0,12.0,53,0.00,,---,0.00,VWS V14.01,2013-02-17 00:49:00,
2013-02-16 19:54:00,32.0,17.2,30.09,West,264,1.0,12.0,54,0.00,,---,0.00,VWS V14.01,2013-02-17 00:54:00,
2013-02-16 19:59:00,31.8,17.1,30.10,West,264,4.0,12.0,54,0.00,,---,0.00,VWS V14.01,2013-02-17 00:59:00,
2013-02-16 20:00:00,31.0,17.2,30.12,West,266,2.0,11.0,56,0.00,,---,0.00,VWS V14.01,2013-02-17 01:00:00,
2013-02-16 20:04:00,31.7,17.0,30.10,West,265,5.0,12.0,54,0.00,,---,0.00,VWS V14.01,2013-02-17 01:04:00,
2013-02-16 20:09:00,31.6,17.3,30.10,West,265,4.0,7.0,55,0.00,,---,0.00,VWS V14.01,2013-02-17 01:09:00,
2013-02-16 20:14:00,31.6,17.3,30.10,West,265,3.0,7.0,55,0.00,,---,0.00,VWS V14.01,2013-02-17 01:14:00,
2013-02-16 20:19:00,31.5,17.2,30.10,West,266,3.0,8.0,55,0.00,,---,0.00,VWS V14.01,2013-02-17 01:19:00,
2013-02-16 20:24:00,31.5,17.2,30.10,West,264,4.0,10.0,55,0.00,,---,0.00,VWS V14.01,2013-02-17 01:24:00,
2013-02-16 20:29:00,31.5,17.6,30.11,West,265,4.0,10.0,56,0.00,,---,0.00,VWS V14.01,2013-02-17 01:29:00,
2013-02-16 20:30:00,31.0,16.7,30.14,West,268,1.0,12.0,55,0.00,,---,0.00,VWS V14.01,2013-02-17 01:30:00,
2013-02-16 20:34:00,31.4,17.5,30.11,West,265,2.0,10.0,56,0.00,,---,0.00,VWS V14.01,2013-02-17 01:34:00,
2013-02-16 20:39:00,31.4,17.5,30.11,West,265,0.0,10.0,56,0.00,,---,0.00,VWS V14.01,2013-02-17 01:39:00,
2013-02-16 20:44:00,31.3,17.4,30.11,West,265,3.0,10.0,56,0.00,,---,0.00,VWS V14.01,2013-02-17 01:44:00,
2013-02-16 20:49:00,31.3,17.0,30.12,West,265,5.0,11.0,55,0.00,,---,0.00,VWS V14.01,2013-02-17 01:49:00,
2013-02-16 20:54:00,31.3,17.0,30.12,West,266,2.0,11.0,55,0.00,,---,0.00,VWS V14.01,2013-02-17 01:54:00,
2013-02-16 20:59:00,31.2,16.9,30.12,West,265,1.0,11.0,55,0.00,,---,0.00,VWS V14.01,2013-02-17 01:59:00,
2013-02-16 21:04:00,31.1,16.8,30.12,West,265,2.0,11.0,55,0.00,,---,0.00,VWS V14.01,2013-02-17 02:04:00,
2013-02-16 21:09:00,30.9,17.1,30.13,West,266,2.0,7.0,56,0.00,,---,0.00,VWS V14.01,2013-02-17 02:09:00,
2013-02-16 21:14:00,31.1,16.8,30.13,West,264,4.0,9.0,55,0.00,,---,0.00,VWS V14.01,2013-02-17 02:14:00,
2013-02-16 21:19:00,31.2,16.9,30.13,West,265,1.0,11.0,55,0.00,,---,0.00,VWS V14.01,2013-02-17 02:19:00,
2013-02-16 21:24:00,31.3,17.0,30.14,West,268,4.0,12.0,55,0.00,,---,0.00,VWS V14.01,2013-02-17 02:24:00,
2013-02-16 21:29:00,31.2,16.9,30.14,West,268,1.0,12.0,55,0.00,,---,0.00,VWS V14.01,2013-02-17 02:29:00,
2013-02-16 21:30:00,30.2,17.2,30.15,West,273,3.0,9.0,58,0.00,,---,0.00,VWS V14.01,2013-02-17 02:30:00,
2013-02-16 21:34:00,31.0,16.7,30.14,West,268,1.0,12.0,55,0.00,,---,0.00,VWS V14.01,2013-02-17 02:34:00,
2013-02-16 21:39:00,30.9,16.6,30.14,West,268,1.0,9.0,55,0.00,,---,0.00,VWS V14.01,2013-02-17 02:39:00,
2013-02-16 21:40:00,30.8,17.0,30.14,West,268,5.0,9.0,56,0.00,,---,0.00,VWS V14.01,2013-02-17 02:40:00,
2013-02-16 21:44:00,30.8,17.0,30.14,West,268,2.0,9.0,56,0.00,,---,0.00,VWS V14.01,2013-02-17 02:44:00,
2013-02-16 22:00:00,29.8,16.8,30.15,West,275,4.0,15.0,58,0.00,,---,0.00,VWS V14.01,2013-02-17 03:00:00,
2013-02-16 22:26:00,30.8,17.0,30.14,West,268,5.0,9.0,56,0.00,,---,0.00,VWS V14.01,2013-02-17 03:26:00,
2013-02-16 22:30:00,29.3,17.1,30.15,West,274,1.0,9.0,60,0.00,,---,0.00,VWS V14.01,2013-02-17 03:30:00,
2013-02-16 22:31:00,30.2,16.8,30.15,West,275,1.0,9.0,57,0.00,,---,0.00,VWS V14.01,2013-02-17 03:31:00,
2013-02-16 22:36:00,30.1,16.7,30.15,West,273,0.0,3.0,57,0.00,,---,0.00,VWS V14.01,2013-02-17 03:36:00,
2013-02-16 22:41:00,30.0,16.6,30.15,West,273,3.0,4.0,57,0.00,,---,0.00,VWS V14.01,2013-02-17 03:41:00,
2013-02-16 22:46:00,30.0,16.6,30.15,West,274,1.0,15.0,57,0.00,,---,0.00,VWS V14.01,2013-02-17 03:46:00,
2013-02-16 22:51:00,30.0,17.0,30.15,West,276,2.0,15.0,58,0.00,,---,0.00,VWS V14.01,2013-02-17 03:51:00,
2013-02-16 22:56:00,29.9,16.9,30.15,West,275,4.0,15.0,58,0.00,,---,0.00,VWS V14.01,2013-02-17 03:56:00,
2013-02-16 23:01:00,29.8,16.8,30.15,West,275,1.0,15.0,58,0.00,,---,0.00,VWS V14.01,2013-02-17 04:01:00,
2013-02-16 23:06:00,29.7,16.8,30.15,West,275,2.0,4.0,58,0.00,,---,0.00,VWS V14.01,2013-02-17 04:06:00,
2013-02-16 23:11:00,29.6,17.0,30.15,West,276,2.0,8.0,59,0.00,,---,0.00,VWS V14.01,2013-02-17 04:11:00,
2013-02-16 23:16:00,29.5,17.0,30.15,West,277,1.0,8.0,59,0.00,,---,0.00,VWS V14.01,2013-02-17 04:16:00,
2013-02-16 23:21:00,29.5,17.0,30.15,West,274,0.0,8.0,59,0.00,,---,0.00,VWS V14.01,2013-02-17 04:21:00,
2013-02-16 23:26:00,29.3,17.1,30.15,West,274,3.0,8.0,60,0.00,,---,0.00,VWS V14.01,2013-02-17 04:26:00,
2013-02-16 23:30:00,28.6,16.5,30.16,West,277,4.0,9.0,60,0.00,,---,0.00,VWS V14.01,2013-02-17 04:30:00,
2013-02-16 23:31:00,29.3,17.1,30.15,West,273,2.0,9.0,60,0.00,,---,0.00,VWS V14.01,2013-02-17 04:31:00,
2013-02-16 23:36:00,29.2,17.4,30.15,West,273,4.0,5.0,61,0.00,,---,0.00,VWS V14.01,2013-02-17 04:36:00,
2013-02-16 23:41:00,29.1,17.3,30.15,West,274,2.0,5.0,61,0.00,,---,0.00,VWS V14.01,2013-02-17 04:41:00,
2013-02-16 23:46:00,29.0,17.2,30.15,West,274,3.0,9.0,61,0.00,,---,0.00,VWS V14.01,2013-02-17 04:46:00,
2013-02-16 23:51:00,29.0,17.2,30.15,West,274,0.0,9.0,61,0.00,,---,0.00,VWS V14.01,2013-02-17 04:51:00,